Detalii statie UNIVERSITATEA AGRICOLA IASI [0000198B]

Toti senzorii

Date Temperatura solului [C]Precipitatii [mm]Voltaj baterie [mV]HC Air temperature [C]HC Relative humidity [%]Punctul de roua [C]
medieminmaxsumaultimamedieminmaxmediemediemin
2020-06-02 09:00:00 0 7324 12.46 11.42 13.17 84.28 9.7 9.2
2020-06-02 10:00:00 0 7324 13.71 13.2 14.57 75.28 9.2 8.6
2020-06-02 11:00:00 0 7304 14.95 14.11 16.32 69.22 9.2 8.3
2020-06-02 12:00:00 0 7324 15.25 14.33 16.58 64.02 8.3 7.5
2020-06-02 13:00:00 0 7324 16.65 15.67 17.73 60.59 8.8 7.4
2020-06-02 14:00:00 0 7324 16.23 15.89 16.78 60.78 8.4 7.6
2020-06-02 15:00:00 0 7324 16.16 15.81 16.45 61.24 8.5 8.1
2020-06-02 16:00:00 0 7324 17.93 16.77 19.08 56.03 8.8 7.7
2020-06-02 17:00:00 0 7314 15.6 13.71 17.94 67.21 9.2 8.4
2020-06-02 18:00:00 0 7206 13.6 13.26 13.84 80.23 10 9.4
2020-06-02 19:00:00 0 7314 14.39 13.77 15.7 75.12 9.8 9.4
2020-06-02 20:00:00 0 7108 14.8 13.85 16.05 72.39 9.6 9.2
2020-06-02 21:00:00 0 6942 13.18 12.66 14.06 82.21 10 9.4
2020-06-02 22:00:00 0 6932 12.28 11.71 12.66 89.56 10.4 10.1
2020-06-02 23:00:00 0 6914 11.36 11.09 11.63 94.21 10.2 9.8
2020-06-03 00:00:00 0 6894 10.69 10.3 11.23 94.57 9.7 9.5
2020-06-03 01:00:00 0 6874 9.62 9.35 10.15 99.93 9.5 9.3
2020-06-03 02:00:00 0 6874 9.18 8.95 9.31 100 9.1 8.9
2020-06-03 03:00:00 0 6874 9.13 8.79 9.41 100 9 8.7
2020-06-03 04:00:00 0 6874 8.47 7.47 9.44 100 8.4 7.4
2020-06-03 05:00:00 0 6864 7.39 6.94 7.7 100 7.3 6.9
2020-06-03 06:00:00 0 6884 7.19 7.08 7.5 100 7.1 7
2020-06-03 07:00:00 0 7020 7.55 7.14 8.17 100 7.5 7.1
2020-06-03 08:00:00 0 7324 9.72 8.22 10.69 100 9.6 8.2
2020-06-03 09:00:00 0 7332 12.09 11.14 14.2 100 12 11.1
2020-06-03 10:00:00 0 7324 14.81 13.81 15.47 84.18 11.9 10.6
2020-06-03 11:00:00 0 7314 15.91 14.96 17.11 74.69 11.3 10.5
2020-06-03 12:00:00 0 7314 17.23 16.47 17.78 68.68 11.2 10.5
2020-06-03 13:00:00 0 7324 17.47 16.12 18.9 70.11 11.8 11.3
2020-06-03 14:00:00 0 7314 19.1 18.47 20.08 66.54 12.5 11.7
2020-06-03 15:00:00 0 7324 17.7 15.36 20.3 71.9 12.3 11.4
2020-06-03 16:00:00 0 7118 16.3 15.91 17.36 75.39 11.7 11.3
2020-06-03 17:00:00 1 7314 15 14.17 15.85 93.43 13.7 11.9
2020-06-03 18:00:00 0 7304 16.26 15.4 16.74 86.33 13.8 12.3
2020-06-03 19:00:00 0 7138 16.02 15.56 16.69 84.91 13.3 11.8
2020-06-03 20:00:00 0 7314 14.34 13.84 15.46 88.02 12.2 11.8
2020-06-03 21:00:00 0 7010 13.51 12.42 14.2 91.66 12 11.6
2020-06-03 22:00:00 0 6972 11.97 11.07 13.24 98.62 11.6 11
2020-06-03 23:00:00 0 6942 11.29 10.31 12.13 100 11.2 10.3
2020-06-04 00:00:00 0 6932 9.8 9.21 10.57 100 9.7 9.2
2020-06-04 01:00:00 0 6914 8.73 8.24 9.18 100 8.6 8.2
2020-06-04 02:00:00 0 6894 7.67 6.75 8.46 100 7.6 6.7
2020-06-04 03:00:00 0 6884 7.18 6.52 7.81 100 7.1 6.5
2020-06-04 04:00:00 0 6874 7.16 6.74 7.74 100 7.1 6.7
2020-06-04 05:00:00 0 6864 6.82 6.36 7.23 100 6.7 6.3
2020-06-04 06:00:00 0.2 6894 6.76 6.09 7.28 100 6.7 6
2020-06-04 07:00:00 0 7060 8.19 7.12 9.38 100 8.1 7.1